»·PEaware :: N8351P L52-L88

N8351P :: L52-L88

FLIGHT INFORMATION

Flight Status: Arrived
Operator: Privately registered:
United States
More flights under this callsign
Pilot: James O. (45484)
Aircraft: PIPER PA-24 COMMANCHE
(PA24)
More flights by this aircraft type
Origin: L52 Oceano Co
United States
Destination: L88 New Cuyama
United States
More flights between these airports :: More routes between these airports
Route:
File this flight plan on PilotEdge
Remarks:
Altitude:
(Current/Filed)
5,500ft
Speed:
(Current/Filed)
160kts
Departed: 30-Oct-23 09:39 AM
Arrived: 30-Oct-23 10:06 AM
Distance/Time
Traveled:
47nm/0:27
Distance/Time
To Go:
Arrived

Flight Plot

Page will automatically refresh every two minutes.


Map Options




Map Legend


Flown Route
Filed Route
Departure Airport
Arrival Airport
Navaid (VOR, NDB)
Fix

Horizontal Profiles

Position Reports

Time Latitude Longitude Heading Altitude Ground
Speed
30-Oct-23 09:30 35.103122 -120.623933 238 22ft 0kts
30-Oct-23 09:31 35.103122 -120.623933 238 22ft 0kts
30-Oct-23 09:32 35.103122 -120.623933 238 22ft 0kts
30-Oct-23 09:33 35.103122 -120.623933 238 22ft 0kts
30-Oct-23 09:34 35.103122 -120.623933 238 22ft 0kts
30-Oct-23 09:35 35.103599 -120.625267 202 20ft 0kts
30-Oct-23 09:36 35.103599 -120.625267 202 20ft 0kts
30-Oct-23 09:37 35.103249 -120.625469 178 22ft 4kts
30-Oct-23 09:38 35.093140 -120.606971 115 555ft 96kts
30-Oct-23 09:39 35.094304 -120.574867 89 1605ft 93kts
30-Oct-23 09:40 35.095777 -120.542972 87 2452ft 95kts
30-Oct-23 09:41 35.099372 -120.510114 82 3268ft 98kts
30-Oct-23 09:42 35.103488 -120.476880 83 4176ft 99kts
30-Oct-23 09:43 35.107533 -120.443212 84 5025ft 100kts
30-Oct-23 09:44 35.110832 -120.406748 86 5512ft 132kts
30-Oct-23 09:45 35.107905 -120.357823 98 5516ft 152kts
30-Oct-23 09:46 35.107388 -120.324562 84 5503ft 155kts
30-Oct-23 09:47 35.111709 -120.271955 87 5508ft 155kts
30-Oct-23 09:48 35.114945 -120.219169 87 5513ft 156kts
30-Oct-23 09:49 35.117829 -120.166563 89 5514ft 155kts
30-Oct-23 09:50 35.119865 -120.114345 90 5516ft 153kts
30-Oct-23 09:51 35.104334 -120.065976 113 5514ft 153kts
30-Oct-23 09:52 35.087573 -120.018733 114 5511ft 150kts
30-Oct-23 09:53 35.070346 -119.972079 116 5519ft 150kts
30-Oct-23 09:54 35.050421 -119.926915 118 5516ft 150kts
30-Oct-23 09:55 35.030752 -119.882746 118 5104ft 148kts
30-Oct-23 09:56 35.010459 -119.838908 124 4614ft 148kts
30-Oct-23 09:57 34.985919 -119.798885 126 4274ft 147kts
30-Oct-23 09:58 34.962000 -119.760269 126 3897ft 139kts
30-Oct-23 09:59 34.935023 -119.724619 135 3181ft 145kts
30-Oct-23 10:00 34.910343 -119.695263 135 3263ft 116kts
30-Oct-23 10:01 34.913943 -119.678068 330 3030ft 102kts
30-Oct-23 10:02 34.926423 -119.707885 301 2786ft 98kts
30-Oct-23 10:03 34.946890 -119.715415 43 2494ft 91kts
30-Oct-23 10:04 34.941657 -119.689768 115 2165ft 67kts
30-Oct-23 10:05 34.940002 -119.685739 296 2186ft 20kts
30-Oct-23 10:06 34.942454 -119.690789 348 2156ft 7kts
30-Oct-23 10:07 34.942764 -119.690828 305 2155ft 0kts
30-Oct-23 10:08 34.942764 -119.690828 305 2154ft 0kts
30-Oct-23 10:09 34.942764 -119.690828 305 2154ft 0kts
30-Oct-23 10:10 34.942764 -119.690828 305 2154ft 0kts
30-Oct-23 10:11 34.942764 -119.690828 305 2154ft 0kts
30-Oct-23 10:12 34.942764 -119.690828 305 2154ft 0kts
30-Oct-23 10:13 34.942764 -119.690828 305 2154ft 0kts
30-Oct-23 10:14 34.942764 -119.690828 305 2154ft 0kts
30-Oct-23 10:15 34.942764 -119.690828 305 2154ft 0kts
30-Oct-23 10:16 34.942764 -119.690828 305 2154ft 0kts
30-Oct-23 10:17 34.942764 -119.690828 305 2154ft 0kts
30-Oct-23 10:18 34.942768 -119.690835 304 2154ft 0kts
30-Oct-23 10:19 34.942825 -119.691162 214 2154ft 0kts

Navigation Log

Ident Type
Flight plan parsing failed, navigation log unavailable